createdAt,value
2018-02-24T00:00:56.186Z,26.60
2018-02-24T00:03:23.654Z,27.53
2018-02-24T00:05:51.109Z,25.80
2018-02-24T00:08:18.581Z,25.33
2018-02-24T00:10:46.796Z,26.63
2018-02-24T00:13:14.272Z,26.17
2018-02-24T00:15:41.727Z,25.97
2018-02-24T00:18:09.190Z,24.40
2018-02-24T00:20:36.687Z,26.53
2018-02-24T00:23:04.117Z,24.47
2018-02-24T00:25:31.582Z,25.27
2018-02-24T00:27:59.055Z,27.27
2018-02-24T00:30:27.296Z,25.67
2018-02-24T00:32:54.762Z,25.33
2018-02-24T00:35:22.210Z,27.77
2018-02-24T00:37:49.665Z,25.53
2018-02-24T00:40:17.121Z,25.30
2018-02-24T00:42:44.592Z,26.93
2018-02-24T00:45:12.042Z,26.50
2018-02-24T00:47:39.562Z,25.50
2018-02-24T00:50:07.039Z,25.87
2018-02-24T00:52:34.520Z,25.73
2018-02-24T00:55:01.974Z,25.67
2018-02-24T00:57:29.461Z,25.90
2018-02-24T00:59:57.692Z,25.60
2018-02-24T01:02:25.142Z,24.30
2018-02-24T01:04:52.621Z,24.20
2018-02-24T01:07:20.090Z,24.47
2018-02-24T01:09:47.546Z,25.10
2018-02-24T01:12:15.006Z,23.97
2018-02-24T01:14:42.473Z,24.53
2018-02-24T01:17:10.693Z,25.17
2018-02-24T01:19:38.149Z,23.30
2018-02-24T01:22:05.608Z,25.43
2018-02-24T01:24:33.071Z,25.00
2018-02-24T01:27:01.298Z,25.37
2018-02-24T01:29:29.521Z,25.87
2018-02-24T01:31:56.981Z,25.20
2018-02-24T01:34:24.446Z,24.27
2018-02-24T01:36:51.906Z,26.40
2018-02-24T01:39:19.360Z,26.00
2018-02-24T01:41:46.826Z,23.83
2018-02-24T01:44:14.309Z,25.43
2018-02-24T01:46:42.521Z,24.17
2018-02-24T01:49:09.985Z,24.30
2018-02-24T01:51:37.432Z,23.63
2018-02-24T01:54:05.714Z,24.03
2018-02-24T01:56:33.173Z,24.70
2018-02-24T01:59:00.639Z,25.10
2018-02-24T02:01:30.838Z,23.90
2018-02-24T02:03:58.293Z,23.63
2018-02-24T02:06:25.747Z,22.90
2018-02-24T02:08:53.221Z,22.60
2018-02-24T02:11:20.673Z,26.83
2018-02-24T02:13:48.140Z,24.33
2018-02-24T02:16:15.602Z,23.37
2018-02-24T02:18:43.065Z,24.83
2018-02-24T02:21:10.515Z,22.53
2018-02-24T02:23:38.741Z,23.40
2018-02-24T02:26:06.201Z,24.47
2018-02-24T02:28:33.662Z,23.97
2018-02-24T02:31:01.118Z,23.47
2018-02-24T02:33:28.584Z,24.90
2018-02-24T02:35:56.045Z,23.17
2018-02-24T02:38:23.535Z,25.07
2018-02-24T02:40:51.016Z,21.97
2018-02-24T02:43:18.481Z,23.37
2018-02-24T02:45:46.704Z,21.13
2018-02-24T02:48:14.168Z,23.60
2018-02-24T02:50:41.657Z,22.20
2018-02-24T02:53:09.118Z,22.17
2018-02-24T02:55:36.582Z,24.33
2018-02-24T02:58:04.801Z,21.23
2018-02-24T03:00:32.262Z,21.90
2018-02-24T03:02:59.722Z,22.93
2018-02-24T03:05:27.182Z,22.40
2018-02-24T03:07:54.720Z,22.73
2018-02-24T03:10:22.178Z,23.87
2018-02-24T03:12:49.632Z,23.07
2018-02-24T03:15:17.101Z,21.33
2018-02-24T03:17:44.557Z,23.40
2018-02-24T03:20:12.023Z,23.10
2018-02-24T03:22:39.478Z,24.73
2018-02-24T03:25:06.941Z,22.37
2018-02-24T03:27:34.399Z,23.83
2018-02-24T03:30:01.888Z,23.30
2018-02-24T03:32:29.338Z,27.07
2018-02-24T03:34:56.805Z,24.30
2018-02-24T03:37:25.034Z,23.73
2018-02-24T03:39:52.510Z,26.90
2018-02-24T03:42:19.974Z,25.70
2018-02-24T03:44:47.445Z,25.43
2018-02-24T03:47:15.679Z,24.23
2018-02-24T03:49:43.150Z,25.93
2018-02-24T03:52:10.617Z,23.87
2018-02-24T03:54:38.078Z,25.77
2018-02-24T03:57:05.555Z,23.30
2018-02-24T03:59:33.023Z,24.17
2018-02-24T04:02:01.281Z,24.67
2018-02-24T04:04:29.518Z,24.20
2018-02-24T04:06:56.978Z,24.40
2018-02-24T04:09:24.481Z,24.97
2018-02-24T04:11:52.710Z,26.63
2018-02-24T04:14:20.174Z,27.33
2018-02-24T04:16:47.640Z,27.10
2018-02-24T04:19:15.098Z,26.97
2018-02-24T04:21:42.577Z,26.70
2018-02-24T04:24:10.797Z,26.00
2018-02-24T04:26:38.269Z,27.20
2018-02-24T04:29:05.739Z,26.77
2018-02-24T04:31:33.209Z,25.07
2018-02-24T04:34:00.672Z,26.20
2018-02-24T04:36:28.132Z,27.17
2018-02-24T04:38:56.378Z,26.80
2018-02-24T04:41:23.850Z,25.63
2018-02-24T04:43:51.318Z,27.97
2018-02-24T04:46:18.794Z,25.07
2018-02-24T04:48:46.261Z,25.60
2018-02-24T04:51:13.746Z,28.00
2018-02-24T04:53:41.201Z,26.80
2018-02-24T04:56:08.677Z,27.33
2018-02-24T04:58:36.125Z,28.07
2018-02-24T05:01:03.599Z,26.30
2018-02-24T05:03:31.067Z,28.27
2018-02-24T05:05:58.538Z,26.73
2018-02-24T05:08:26.780Z,27.17
2018-02-24T05:10:54.249Z,28.50
2018-02-24T05:13:21.705Z,29.10
2018-02-24T05:15:49.185Z,28.10
2018-02-24T05:18:17.417Z,27.17
2018-02-24T05:20:44.887Z,28.77
2018-02-24T05:23:12.357Z,28.37
2018-02-24T05:25:39.830Z,28.17
2018-02-24T05:28:08.064Z,29.83
2018-02-24T05:30:35.541Z,28.70
2018-02-24T05:33:03.001Z,28.13
2018-02-24T05:35:30.478Z,28.10
2018-02-24T05:37:58.703Z,26.83
2018-02-24T05:40:26.174Z,27.90
2018-02-24T05:42:53.633Z,29.37
2018-02-24T05:45:21.109Z,29.33
2018-02-24T05:47:48.561Z,28.67
2018-02-24T05:50:16.029Z,29.63
2018-02-24T05:52:44.267Z,32.00
2018-02-24T05:55:11.722Z,30.57
2018-02-24T05:57:39.202Z,30.77
2018-02-24T06:00:06.676Z,29.37
2018-02-24T06:02:34.918Z,28.17
2018-02-24T06:05:02.370Z,29.57
2018-02-24T06:07:29.848Z,30.13
2018-02-24T06:09:57.304Z,29.03
2018-02-24T06:12:24.790Z,29.80
2018-02-24T06:14:52.245Z,26.77
2018-02-24T06:17:19.722Z,31.57
2018-02-24T06:19:47.199Z,29.73
2018-02-24T06:22:14.666Z,28.30
2018-02-24T06:24:42.135Z,31.03
2018-02-24T06:27:09.610Z,29.93
2018-02-24T06:29:37.070Z,32.93
2018-02-24T06:32:05.314Z,28.40
2018-02-24T06:34:32.795Z,29.87
2018-02-24T06:37:00.254Z,31.70
2018-02-24T06:39:27.729Z,29.57
2018-02-24T06:41:55.966Z,28.70
2018-02-24T06:44:23.442Z,31.53
2018-02-24T06:46:50.901Z,33.27
2018-02-24T06:49:19.133Z,30.83
2018-02-24T06:51:47.377Z,28.07
2018-02-24T06:54:14.843Z,30.90
2018-02-24T06:56:42.313Z,31.83
2018-02-24T06:59:09.790Z,30.10
2018-02-24T07:01:37.257Z,29.17
2018-02-24T07:04:04.723Z,30.37
2018-02-24T07:06:32.187Z,30.20
2018-02-24T07:08:59.649Z,30.43
2018-02-24T07:11:27.117Z,31.73
2018-02-24T07:13:55.349Z,29.30
2018-02-24T07:16:22.827Z,31.80
2018-02-24T07:18:50.277Z,30.20
2018-02-24T07:21:17.747Z,30.73
2018-02-24T07:23:45.217Z,29.63
2018-02-24T07:26:13.442Z,31.07
2018-02-24T07:28:40.913Z,26.70
2018-02-24T07:31:08.369Z,29.23
2018-02-24T07:33:36.815Z,29.37
2018-02-24T07:36:04.293Z,28.50
2018-02-24T07:38:31.758Z,28.13
2018-02-24T07:41:00.011Z,30.10
2018-02-24T07:43:27.492Z,29.43
2018-02-24T07:45:54.949Z,28.40
2018-02-24T07:48:22.418Z,27.30
2018-02-24T07:50:49.886Z,29.50
2018-02-24T07:53:17.355Z,27.80
2018-02-24T07:55:45.589Z,25.83
2018-02-24T07:58:13.053Z,29.03
2018-02-24T08:00:40.534Z,28.70
2018-02-24T08:03:08.017Z,28.23
2018-02-24T08:05:36.257Z,28.53
2018-02-24T08:08:03.722Z,27.57
2018-02-24T08:10:32.133Z,28.37
2018-02-24T08:13:00.569Z,26.00
2018-02-24T08:15:28.029Z,25.93
2018-02-24T08:17:55.502Z,25.47
2018-02-24T08:20:23.734Z,26.50
2018-02-24T08:22:52.206Z,25.20
2018-02-24T08:25:19.664Z,29.00
2018-02-24T08:27:47.133Z,25.30
2018-02-24T08:30:14.598Z,24.83
2018-02-24T08:32:42.065Z,24.37
2018-02-24T08:35:09.526Z,26.17
2018-02-24T08:37:36.996Z,25.83
2018-02-24T08:40:05.226Z,24.97
2018-02-24T08:42:32.693Z,26.80
2018-02-24T08:45:00.157Z,24.50
2018-02-24T08:47:27.617Z,24.13
2018-02-24T08:49:55.090Z,23.07
2018-02-24T08:52:22.552Z,25.03
2018-02-24T08:54:50.028Z,23.40
2018-02-24T08:57:18.253Z,23.57
2018-02-24T08:59:45.709Z,24.90
2018-02-24T09:02:13.192Z,24.67
2018-02-24T09:04:40.655Z,23.70
2018-02-24T09:07:08.110Z,22.07
2018-02-24T09:09:36.345Z,22.83
2018-02-24T09:12:03.805Z,22.80
2018-02-24T09:14:31.278Z,23.10
2018-02-24T09:16:58.728Z,20.70
2018-02-24T09:19:26.204Z,23.07
2018-02-24T09:21:53.653Z,21.53
2018-02-24T09:24:21.121Z,21.83
2018-02-24T09:26:48.577Z,21.17
2018-02-24T09:29:16.039Z,21.73
2018-02-24T09:31:43.489Z,20.30
2018-02-24T09:34:10.953Z,20.03
2018-02-24T09:36:39.176Z,19.80
2018-02-24T09:39:06.629Z,20.63
2018-02-24T09:41:34.085Z,21.00
2018-02-24T09:44:01.555Z,21.30
2018-02-24T09:46:29.005Z,20.53
2018-02-24T09:48:56.472Z,19.27
2018-02-24T09:51:23.931Z,18.33
2018-02-24T09:53:51.393Z,21.40
2018-02-24T09:56:18.846Z,18.37
2018-02-24T09:58:46.301Z,18.03
2018-02-24T10:01:13.766Z,17.03
2018-02-24T10:03:41.229Z,17.50
2018-02-24T10:06:09.287Z,18.53
2018-02-24T10:08:36.742Z,16.33
2018-02-24T10:11:04.194Z,19.07
2018-02-24T10:13:31.661Z,16.37
2018-02-24T10:15:59.121Z,17.50
2018-02-24T10:18:26.588Z,17.17
2018-02-24T10:20:54.054Z,14.83
2018-02-24T10:23:21.509Z,17.10
2018-02-24T10:25:48.959Z,15.50
2018-02-24T10:28:16.425Z,15.30
2018-02-24T10:30:43.875Z,15.33
2018-02-24T10:33:11.337Z,18.33
2018-02-24T10:35:38.785Z,15.33
2018-02-24T10:38:06.269Z,15.37
2018-02-24T10:40:34.497Z,15.30
2018-02-24T10:43:01.957Z,14.20
2018-02-24T10:45:29.416Z,14.37
2018-02-24T10:47:56.885Z,12.90
2018-02-24T10:50:24.354Z,15.80
2018-02-24T10:52:51.797Z,14.17
2018-02-24T10:55:19.253Z,13.87
2018-02-24T10:57:46.713Z,15.53
2018-02-24T11:00:14.169Z,15.40
2018-02-24T11:02:41.622Z,13.13
2018-02-24T11:05:09.085Z,14.27
2018-02-24T11:07:36.537Z,15.13
2018-02-24T11:10:03.998Z,14.90
2018-02-24T11:12:31.500Z,12.63
2018-02-24T11:14:58.909Z,15.13
2018-02-24T11:17:26.353Z,15.83
2018-02-24T11:19:53.818Z,15.10
2018-02-24T11:22:21.269Z,13.73
2018-02-24T11:24:48.742Z,13.40
2018-02-24T11:27:16.190Z,14.03
2018-02-24T11:29:43.659Z,14.40
2018-02-24T11:32:11.117Z,12.87
2018-02-24T11:34:38.577Z,14.87
2018-02-24T11:37:06.031Z,13.77
2018-02-24T11:39:39.030Z,13.87
2018-02-24T11:42:07.258Z,13.97
2018-02-24T11:44:34.717Z,14.30
2018-02-24T11:47:02.185Z,15.80
2018-02-24T11:49:29.650Z,14.30
2018-02-24T11:51:57.114Z,14.17
2018-02-24T11:54:24.657Z,13.63
2018-02-24T11:56:52.110Z,12.97
2018-02-24T11:59:19.582Z,15.03
2018-02-24T12:01:47.040Z,15.20
2018-02-24T12:04:14.515Z,14.13
2018-02-24T12:06:42.733Z,14.73
2018-02-24T12:09:10.197Z,11.97
2018-02-24T12:11:37.660Z,12.07
2018-02-24T12:14:05.145Z,13.07
2018-02-24T12:16:32.593Z,14.27
2018-02-24T12:19:00.067Z,12.50
2018-02-24T12:21:27.522Z,12.93
2018-02-24T12:23:55.754Z,14.17
2018-02-24T12:26:23.209Z,12.80
2018-02-24T12:28:50.673Z,11.90
2018-02-24T12:31:18.162Z,11.33
2018-02-24T12:33:45.612Z,13.90
2018-02-24T12:36:13.073Z,12.67
2018-02-24T12:38:40.530Z,12.80
2018-02-24T12:41:07.993Z,13.17
2018-02-24T12:43:36.243Z,11.43
2018-02-24T12:46:03.690Z,12.03
2018-02-24T12:48:31.139Z,14.20
2018-02-24T12:50:58.628Z,11.00
2018-02-24T12:53:26.082Z,11.70
2018-02-24T12:55:53.542Z,10.63
2018-02-24T12:58:20.994Z,10.80
2018-02-24T13:00:48.469Z,10.73
2018-02-24T13:03:16.694Z,11.23
2018-02-24T13:05:44.180Z,11.20
2018-02-24T13:08:11.632Z,12.10
2018-02-24T13:10:39.089Z,11.70
2018-02-24T13:13:06.546Z,16.00
2018-02-24T13:15:34.020Z,17.10
2018-02-24T13:18:01.471Z,11.77
2018-02-24T13:20:28.930Z,10.80
2018-02-24T13:22:56.382Z,10.80
2018-02-24T13:25:23.891Z,10.80
2018-02-24T13:27:51.303Z,11.00
2018-02-24T13:30:18.756Z,9.53
2018-02-24T13:32:46.218Z,9.73
2018-02-24T13:35:13.675Z,10.67
2018-02-24T13:37:41.133Z,10.30
2018-02-24T13:40:09.378Z,10.80
2018-02-24T13:42:36.825Z,10.67
2018-02-24T13:45:04.285Z,10.77
2018-02-24T13:47:31.742Z,10.70
2018-02-24T13:49:59.229Z,8.97
2018-02-24T13:52:26.684Z,10.50
2018-02-24T13:54:54.137Z,9.50
2018-02-24T13:57:21.977Z,8.40
2018-02-24T13:59:49.424Z,9.30
2018-02-24T14:02:16.885Z,9.40
2018-02-24T14:04:44.334Z,9.93
2018-02-24T14:07:11.790Z,9.83
2018-02-24T14:09:39.265Z,9.20
2018-02-24T14:12:06.724Z,9.37
2018-02-24T14:14:34.177Z,8.83
2018-02-24T14:17:01.648Z,8.27
2018-02-24T14:19:29.102Z,9.00
2018-02-24T14:21:56.560Z,8.23
2018-02-24T14:24:24.014Z,8.93
2018-02-24T14:26:51.469Z,7.63
2018-02-24T14:29:18.928Z,8.33
2018-02-24T14:31:46.381Z,8.23
2018-02-24T14:34:13.829Z,8.63
2018-02-24T14:36:41.298Z,9.13
2018-02-24T14:39:08.748Z,8.13
2018-02-24T14:41:36.205Z,8.13
2018-02-24T14:44:04.457Z,8.70
2018-02-24T14:46:31.921Z,9.30
2018-02-24T14:48:59.377Z,8.57
2018-02-24T14:51:26.834Z,8.77
2018-02-24T14:53:54.299Z,8.50
2018-02-24T14:56:21.758Z,8.03
2018-02-24T14:58:49.212Z,9.90
2018-02-24T15:01:16.674Z,8.37
2018-02-24T15:03:44.117Z,7.90
2018-02-24T15:06:11.592Z,8.33
2018-02-24T15:08:39.042Z,8.13
2018-02-24T15:11:06.510Z,8.80
2018-02-24T15:13:33.963Z,9.23
2018-02-24T15:16:01.411Z,9.57
2018-02-24T15:18:29.633Z,9.83
2018-02-24T15:20:57.856Z,10.40
2018-02-24T15:23:25.303Z,8.17
2018-02-24T15:25:52.775Z,8.90
2018-02-24T15:28:20.237Z,10.63
2018-02-24T15:30:47.694Z,10.80
2018-02-24T15:33:15.149Z,9.80
2018-02-24T15:35:42.609Z,10.10
2018-02-24T15:38:10.075Z,10.50
2018-02-24T15:40:37.533Z,11.60
2018-02-24T15:43:04.989Z,9.30
2018-02-24T15:45:32.437Z,10.70
2018-02-24T15:47:59.898Z,9.27
2018-02-24T15:50:27.354Z,9.93
2018-02-24T15:52:54.830Z,9.87
2018-02-24T15:55:23.045Z,10.97
2018-02-24T15:57:50.513Z,9.70
2018-02-24T16:00:17.963Z,10.20
2018-02-24T16:02:45.414Z,8.43
2018-02-24T16:05:12.870Z,9.80
2018-02-24T16:07:40.325Z,10.47
2018-02-24T16:10:07.793Z,8.90
2018-02-24T16:12:35.253Z,8.97
2018-02-24T16:15:02.705Z,9.90
2018-02-24T16:17:30.169Z,9.70
2018-02-24T16:19:57.626Z,9.30
2018-02-24T16:22:25.077Z,9.53
2018-02-24T16:24:52.539Z,8.97
2018-02-24T16:27:19.996Z,9.90
2018-02-24T16:29:47.476Z,9.57
2018-02-24T16:32:14.939Z,7.93
2018-02-24T16:34:42.401Z,7.93
2018-02-24T16:37:09.849Z,9.43
2018-02-24T16:39:37.297Z,7.80
2018-02-24T16:42:04.757Z,9.47
2018-02-24T16:44:32.211Z,7.80
2018-02-24T16:46:59.673Z,8.07
2018-02-24T16:49:27.134Z,9.37
2018-02-24T16:51:54.583Z,8.70
2018-02-24T16:54:22.029Z,8.40
2018-02-24T16:56:49.500Z,9.37
2018-02-24T16:59:16.951Z,9.43
2018-02-24T17:01:44.410Z,7.90
2018-02-24T17:04:11.865Z,9.57
2018-02-24T17:06:39.321Z,8.87
2018-02-24T17:09:06.780Z,8.90
2018-02-24T17:11:34.239Z,10.20
2018-02-24T17:14:01.701Z,10.40
2018-02-24T17:16:29.165Z,12.83
2018-02-24T17:18:57.385Z,12.00
2018-02-24T17:21:24.836Z,9.03
2018-02-24T17:23:52.361Z,9.27
2018-02-24T17:26:20.672Z,7.77
2018-02-24T17:28:48.113Z,7.97
2018-02-24T17:31:15.565Z,7.53
2018-02-24T17:33:43.026Z,6.23
2018-02-24T17:36:10.473Z,6.23
2018-02-24T17:38:37.927Z,6.30
2018-02-24T17:41:06.136Z,5.97
2018-02-24T17:43:33.605Z,8.13
2018-02-24T17:46:01.058Z,7.57
2018-02-24T17:48:28.513Z,5.93
2018-02-24T17:50:55.961Z,6.03
2018-02-24T17:53:23.437Z,7.20
2018-02-24T17:55:51.115Z,6.50
2018-02-24T17:58:18.565Z,6.10
2018-02-24T18:00:46.009Z,6.10
2018-02-24T18:03:13.487Z,5.70
2018-02-24T18:05:40.936Z,6.07
2018-02-24T18:08:08.397Z,6.57
2018-02-24T18:10:35.863Z,7.13
2018-02-24T18:13:03.318Z,5.93
2018-02-24T18:15:30.783Z,7.10
2018-02-24T18:17:58.232Z,7.00
2018-02-24T18:20:25.688Z,6.30
2018-02-24T18:22:53.137Z,7.60
2018-02-24T18:25:20.586Z,7.63
2018-02-24T18:27:48.037Z,7.70
2018-02-24T18:30:15.505Z,7.77
2018-02-24T18:32:43.721Z,7.93
2018-02-24T18:35:11.164Z,7.40
2018-02-24T18:37:39.387Z,8.67
2018-02-24T18:40:06.837Z,9.00
2018-02-24T18:42:34.294Z,8.50
2018-02-24T18:45:01.752Z,9.53
2018-02-24T18:47:29.197Z,9.50
2018-02-24T18:49:56.666Z,10.10
2018-02-24T18:52:24.117Z,10.43
2018-02-24T18:54:51.579Z,8.47
2018-02-24T18:57:19.027Z,9.73
2018-02-24T18:59:46.486Z,11.20
2018-02-24T19:02:13.945Z,9.70
2018-02-24T19:04:41.386Z,8.27
2018-02-24T19:07:08.832Z,9.70
2018-02-24T19:09:36.289Z,9.17
2018-02-24T19:12:03.741Z,9.47
2018-02-24T19:14:31.209Z,9.37
2018-02-24T19:16:58.653Z,9.17
2018-02-24T19:19:26.117Z,9.10
2018-02-24T19:21:53.566Z,10.20
2018-02-24T19:24:21.021Z,8.03
2018-02-24T19:26:48.477Z,9.80
2018-02-24T19:29:16.698Z,9.70
2018-02-24T19:31:44.917Z,8.70
2018-02-24T19:34:13.133Z,9.50
2018-02-24T19:36:40.588Z,9.03
2018-02-24T19:39:08.061Z,8.70
2018-02-24T19:41:36.289Z,9.10
2018-02-24T19:44:03.751Z,8.30
2018-02-24T19:46:31.193Z,8.77
2018-02-24T19:48:59.409Z,9.40
2018-02-24T19:51:26.868Z,8.47
2018-02-24T19:53:54.315Z,7.63
2018-02-24T19:56:21.772Z,7.03
2018-02-24T19:58:49.234Z,7.57
2018-02-24T20:01:16.688Z,7.87
2018-02-24T20:03:44.142Z,7.30
2018-02-24T20:06:11.609Z,8.80
2018-02-24T20:08:39.067Z,6.87
2018-02-24T20:11:06.527Z,7.30
2018-02-24T20:13:33.970Z,7.50
2018-02-24T20:16:01.434Z,7.33
2018-02-24T20:18:28.892Z,9.03
2018-02-24T20:20:56.354Z,7.00
2018-02-24T20:23:23.818Z,7.10
2018-02-24T20:25:51.321Z,8.40
2018-02-24T20:28:18.749Z,7.37
2018-02-24T20:30:46.201Z,7.20
2018-02-24T20:33:13.654Z,7.23
2018-02-24T20:35:41.122Z,7.57
2018-02-24T20:38:08.575Z,7.90
2018-02-24T20:40:36.025Z,7.10
2018-02-24T20:43:03.481Z,7.10
2018-02-24T20:45:30.948Z,8.27
2018-02-24T20:47:58.401Z,7.10
2018-02-24T20:50:25.880Z,6.70
2018-02-24T20:52:54.107Z,7.30
2018-02-24T20:55:21.563Z,7.10
2018-02-24T20:57:49.013Z,7.80
2018-02-24T21:00:16.478Z,7.27
2018-02-24T21:02:43.950Z,7.30
2018-02-24T21:05:12.057Z,7.20
2018-02-24T21:07:40.298Z,7.73
2018-02-24T21:10:07.761Z,6.67
2018-02-24T21:12:35.228Z,7.70
2018-02-24T21:15:02.681Z,6.20
2018-02-24T21:17:30.137Z,6.90
2018-02-24T21:19:57.590Z,6.60
2018-02-24T21:22:25.048Z,6.37
2018-02-24T21:24:52.510Z,7.27
2018-02-24T21:27:19.990Z,7.20
2018-02-24T21:29:47.449Z,6.50
2018-02-24T21:32:14.916Z,6.77
2018-02-24T21:34:42.378Z,7.73
2018-02-24T21:37:09.841Z,7.17
2018-02-24T21:39:37.296Z,6.40
2018-02-24T21:42:04.759Z,6.83
2018-02-24T21:44:32.212Z,7.53
2018-02-24T21:46:59.677Z,7.33
2018-02-24T21:49:27.142Z,7.47
2018-02-24T21:51:54.601Z,6.43
2018-02-24T21:54:22.053Z,7.20
2018-02-24T21:56:49.522Z,7.50
2018-02-24T21:59:16.973Z,7.70
2018-02-24T22:01:44.431Z,6.70
2018-02-24T22:04:11.897Z,7.53
2018-02-24T22:06:39.354Z,7.20
2018-02-24T22:09:06.814Z,6.57
2018-02-24T22:11:34.289Z,7.40
2018-02-24T22:14:02.530Z,6.63
2018-02-24T22:16:29.997Z,6.57
2018-02-24T22:18:57.457Z,7.83
2018-02-24T22:21:24.925Z,7.33
2018-02-24T22:23:52.381Z,7.43
2018-02-24T22:26:19.853Z,7.67
2018-02-24T22:28:47.290Z,6.77
2018-02-24T22:31:14.753Z,7.50
2018-02-24T22:33:42.212Z,7.30
2018-02-24T22:36:09.681Z,8.03
2018-02-24T22:38:37.902Z,7.30
2018-02-24T22:41:05.359Z,7.30
2018-02-24T22:43:32.825Z,6.77
2018-02-24T22:46:00.291Z,7.40
2018-02-24T22:48:33.505Z,6.97
2018-02-24T22:51:00.957Z,6.60
2018-02-24T22:53:28.417Z,6.13
2018-02-24T22:55:55.870Z,6.40
2018-02-24T22:58:23.326Z,6.20
2018-02-24T23:00:50.773Z,6.63
2018-02-24T23:03:18.242Z,6.80
2018-02-24T23:05:45.693Z,6.97
2018-02-24T23:08:13.157Z,6.07
2018-02-24T23:10:41.381Z,6.83
2018-02-24T23:13:08.845Z,5.70
2018-02-24T23:15:36.310Z,6.37
2018-02-24T23:18:03.783Z,7.60
2018-02-24T23:20:31.253Z,7.30
2018-02-24T23:22:58.720Z,5.80
2018-02-24T23:25:26.964Z,6.50
2018-02-24T23:27:55.181Z,6.50
2018-02-24T23:30:23.406Z,6.20
2018-02-24T23:32:50.874Z,6.40
2018-02-24T23:35:18.329Z,6.90
2018-02-24T23:37:45.799Z,7.00
2018-02-24T23:40:13.253Z,5.80
2018-02-24T23:42:40.717Z,6.77
2018-02-24T23:45:08.169Z,7.13
2018-02-24T23:47:35.640Z,5.83
2018-02-24T23:50:03.101Z,7.27
2018-02-24T23:52:31.343Z,6.43
2018-02-24T23:54:58.820Z,6.73
2018-02-24T23:57:26.281Z,7.00
2018-02-24T23:59:53.732Z,6.80
